Time;durP1;ratioP1;P1;durP2;ratioP2;P2;SDS_P1;SDS_P2;PMS_P1;PMS_P2;Temp;Humidity;BMP_temperature;BMP_pressure;BME280_temperature;BME280_humidity;BME280_pressure;Samples;Min_cycle;Max_cycle;Signal;HPM_P1;HPM_P2
2021/03/07 00:00:12;;;;;;;0.00;0.00;;;14.40;68.10;;;;;;4214145;28;20414;-43
2021/03/07 00:02:33;;;;;;;1.48;1.20;;;14.40;68.20;;;;;;4214395;28;20048;-44
2021/03/07 00:04:54;;;;;;;0.00;0.00;;;14.40;68.40;;;;;;4214145;28;20056;-44
2021/03/07 00:07:16;;;;;;;0.15;0.15;;;14.40;68.40;;;;;;4210802;28;20517;-46
2021/03/07 00:09:37;;;;;;;0.00;0.00;;;14.30;68.50;;;;;;4214189;28;20098;-43
2021/03/07 00:11:58;;;;;;;0.65;0.65;;;14.40;68.70;;;;;;4214192;28;20052;-45
2021/03/07 00:14:18;;;;;;;0.17;0.17;;;14.30;68.70;;;;;;4213958;28;20083;-43
2021/03/07 00:16:39;;;;;;;0.00;0.00;;;14.30;68.70;;;;;;4214038;28;20048;-44
2021/03/07 00:19:02;;;;;;;0.55;0.55;;;14.40;68.80;;;;;;4213789;28;20048;-46
2021/03/07 00:21:24;;;;;;;0.00;0.00;;;14.50;68.50;;;;;;4213935;28;20078;-45
2021/03/07 00:23:47;;;;;;;0.10;0.10;;;14.60;68.20;;;;;;4214024;28;20066;-43
2021/03/07 00:26:09;;;;;;;0.00;0.00;;;14.60;67.90;;;;;;4213633;28;20126;-43
2021/03/07 00:28:30;;;;;;;0.10;0.10;;;14.70;67.80;;;;;;4213712;28;20414;-44
2021/03/07 00:30:51;;;;;;;0.00;0.00;;;14.70;67.60;;;;;;4213641;28;20076;-44
2021/03/07 00:33:12;;;;;;;0.00;0.00;;;14.70;67.50;;;;;;4213911;28;20056;-44
2021/03/07 00:35:33;;;;;;;0.30;0.30;;;14.70;67.40;;;;;;4213626;28;20144;-43
2021/03/07 00:37:55;;;;;;;0.00;0.00;;;14.70;67.40;;;;;;4213808;28;20054;-44
2021/03/07 00:40:16;;;;;;;0.10;0.10;;;14.80;67.50;;;;;;4213241;28;20068;-47
2021/03/07 00:42:38;;;;;;;0.55;0.55;;;15.00;66.80;;;;;;4213716;28;20048;-44
2021/03/07 00:44:59;;;;;;;0.00;0.00;;;15.20;65.60;;;;;;4213426;28;20510;-43
2021/03/07 00:47:20;;;;;;;0.10;0.10;;;15.40;64.80;;;;;;4213582;28;20157;-44
2021/03/07 00:49:42;;;;;;;0.40;0.40;;;15.50;64.40;;;;;;4213646;28;20052;-45
2021/03/07 00:52:03;;;;;;;0.00;0.00;;;15.50;64.30;;;;;;4213422;28;20060;-45
2021/03/07 00:54:25;;;;;;;0.47;0.47;;;15.50;64.20;;;;;;4213688;28;20059;-44
2021/03/07 00:56:46;;;;;;;0.52;0.52;;;15.40;64.30;;;;;;4196686;28;20056;-46
2021/03/07 00:59:08;;;;;;;0.00;0.00;;;15.40;64.40;;;;;;4212086;28;20101;-43
2021/03/07 01:01:29;;;;;;;0.00;0.00;;;15.40;64.60;;;;;;4213436;28;20059;-43
2021/03/07 01:03:50;;;;;;;2.55;0.80;;;15.30;64.80;;;;;;4213262;28;20052;-43
2021/03/07 01:06:11;;;;;;;0.00;0.00;;;15.30;65.00;;;;;;4213289;28;20414;-44
2021/03/07 01:08:32;;;;;;;0.00;0.00;;;15.20;65.10;;;;;;4213195;28;20052;-44
2021/03/07 01:10:53;;;;;;;0.00;0.00;;;15.10;65.30;;;;;;4212988;28;20131;-45
2021/03/07 01:13:17;;;;;;;0.17;0.17;;;15.10;65.60;;;;;;4213114;28;20059;-43
2021/03/07 01:15:38;;;;;;;0.25;0.25;;;15.00;65.70;;;;;;4213123;28;20051;-43
2021/03/07 01:18:00;;;;;;;0.00;0.00;;;15.00;65.90;;;;;;4212947;28;20055;-43
2021/03/07 01:20:22;;;;;;;1.65;1.13;;;14.90;66.00;;;;;;4213140;28;20048;-45
2021/03/07 01:22:47;;;;;;;0.95;0.95;;;14.90;66.20;;;;;;4212788;28;20047;-43
2021/03/07 01:25:08;;;;;;;0.03;0.03;;;14.80;66.30;;;;;;4212894;28;20105;-43
2021/03/07 01:27:32;;;;;;;0.00;0.00;;;14.90;66.50;;;;;;4212678;28;20135;-46
2021/03/07 01:29:52;;;;;;;0.00;0.00;;;15.10;65.80;;;;;;4212903;28;20410;-44
2021/03/07 01:32:13;;;;;;;0.10;0.10;;;15.30;64.80;;;;;;4212986;28;20047;-45
2021/03/07 01:34:34;;;;;;;0.00;0.00;;;15.50;64.10;;;;;;4212857;28;20059;-49
2021/03/07 01:36:55;;;;;;;0.00;0.00;;;15.60;63.80;;;;;;4195921;28;20052;-49
2021/03/07 01:39:16;;;;;;;0.00;0.00;;;15.60;63.40;;;;;;4196076;28;20192;-43
2021/03/07 01:41:39;;;;;;;0.00;0.00;;;15.60;63.40;;;;;;4211270;28;20058;-46
2021/03/07 01:44:01;;;;;;;0.00;0.00;;;15.70;63.40;;;;;;4212851;28;20056;-44
2021/03/07 01:46:22;;;;;;;0.00;0.00;;;15.70;63.10;;;;;;4212677;28;20503;-44
2021/03/07 01:48:43;;;;;;;0.00;0.00;;;15.70;62.70;;;;;;4212462;28;20052;-43
2021/03/07 01:51:05;;;;;;;0.00;0.00;;;15.70;62.70;;;;;;4212626;28;20490;-44
2021/03/07 01:53:26;;;;;;;0.08;0.08;;;15.60;62.70;;;;;;4212646;28;20075;-44
2021/03/07 01:55:49;;;;;;;0.00;0.00;;;15.60;63.20;;;;;;4212274;28;20510;-45
2021/03/07 01:58:14;;;;;;;0.00;0.00;;;15.60;63.30;;;;;;4211579;28;20044;-45
2021/03/07 02:00:36;;;;;;;0.15;0.10;;;15.50;63.40;;;;;;4212078;28;20048;-44
2021/03/07 02:02:58;;;;;;;0.00;0.00;;;15.50;63.40;;;;;;4212492;28;20047;-43
2021/03/07 02:05:20;;;;;;;0.00;0.00;;;15.40;63.70;;;;;;4212367;28;20551;-45
2021/03/07 02:07:44;;;;;;;0.00;0.00;;;15.40;63.90;;;;;;4212421;28;20079;-44
2021/03/07 02:10:07;;;;;;;0.10;0.10;;;15.30;64.00;;;;;;4211203;28;20052;-44
2021/03/07 02:12:39;;;;;;;0.00;0.00;;;15.20;64.20;;;;;;4212472;28;20493;-43
2021/03/07 02:15:02;;;;;;;0.35;0.35;;;15.20;64.50;;;;;;4212150;28;20163;-44
2021/03/07 02:17:24;;;;;;;0.15;0.15;;;15.20;64.30;;;;;;4211864;28;20052;-43
2021/03/07 02:19:46;;;;;;;0.00;0.00;;;15.50;63.70;;;;;;4212140;28;20490;-43
2021/03/07 02:22:13;;;;;;;0.00;0.00;;;15.70;63.00;;;;;;4212309;28;20063;-44
2021/03/07 02:24:35;;;;;;;0.20;0.20;;;15.80;62.40;;;;;;4212033;28;20052;-45
2021/03/07 02:26:59;;;;;;;0.10;0.10;;;15.90;62.20;;;;;;4212315;28;20777;-44
2021/03/07 02:29:22;;;;;;;0.00;0.00;;;15.90;62.20;;;;;;4212332;28;20075;-44
2021/03/07 02:31:48;;;;;;;0.00;0.00;;;15.80;62.20;;;;;;4212375;28;20712;-43
2021/03/07 02:34:15;;;;;;;0.00;0.00;;;15.80;62.40;;;;;;4212121;28;20113;-43
2021/03/07 02:36:40;;;;;;;1.05;1.05;;;15.80;62.40;;;;;;4195963;28;20056;-49
2021/03/07 02:39:05;;;;;;;0.00;0.00;;;15.80;62.40;;;;;;4195331;28;20414;-50
2021/03/07 02:41:31;;;;;;;0.00;0.00;;;15.80;62.50;;;;;;4195304;28;20509;-44
2021/03/07 02:43:53;;;;;;;0.47;0.47;;;15.70;62.50;;;;;;4196800;28;20491;-47
2021/03/07 02:46:16;;;;;;;0.00;0.00;;;15.70;62.80;;;;;;4211496;28;20063;-43
2021/03/07 02:48:38;;;;;;;0.00;0.00;;;15.60;62.90;;;;;;4212143;28;20521;-43
2021/03/07 02:51:01;;;;;;;0.00;0.00;;;15.50;63.00;;;;;;4212134;28;20052;-44
2021/03/07 02:53:25;;;;;;;0.10;0.10;;;15.40;63.10;;;;;;4212156;28;20467;-43
2021/03/07 02:55:48;;;;;;;0.22;0.22;;;15.40;63.50;;;;;;4211612;28;20054;-44
2021/03/07 02:58:13;;;;;;;0.85;0.85;;;15.20;63.60;;;;;;4211699;28;20052;-43
2021/03/07 03:00:35;;;;;;;0.00;0.00;;;15.20;63.80;;;;;;4211984;28;20464;-43
2021/03/07 03:02:59;;;;;;;0.00;0.00;;;15.10;64.00;;;;;;4212104;28;20048;-43
2021/03/07 03:05:21;;;;;;;0.10;0.10;;;15.00;64.30;;;;;;4212006;28;20054;-43
2021/03/07 03:07:43;;;;;;;0.22;0.22;;;15.20;64.20;;;;;;4210793;28;20052;-43
2021/03/07 03:10:06;;;;;;;0.00;0.00;;;15.40;63.50;;;;;;4213213;28;20109;-43
2021/03/07 03:12:30;;;;;;;0.10;0.10;;;15.50;63.00;;;;;;4215115;28;20055;-43
2021/03/07 03:14:52;;;;;;;2.40;1.55;;;15.60;62.80;;;;;;4214954;28;20117;-43
2021/03/07 03:17:15;;;;;;;0.47;0.47;;;15.60;62.40;;;;;;4214581;28;20056;-43
2021/03/07 03:19:39;;;;;;;0.00;0.00;;;15.60;62.40;;;;;;4214956;28;20130;-51
2021/03/07 03:22:00;;;;;;;0.35;0.35;;;15.60;62.40;;;;;;4214992;28;20059;-51
2021/03/07 03:24:22;;;;;;;0.00;0.00;;;15.60;62.30;;;;;;4214750;28;20078;-45
2021/03/07 03:26:43;;;;;;;0.00;0.00;;;15.60;62.50;;;;;;4214670;28;20051;-45
2021/03/07 03:29:05;;;;;;;0.10;0.10;;;15.60;62.50;;;;;;4214783;28;20502;-43
2021/03/07 03:31:30;;;;;;;0.88;0.88;;;15.60;62.40;;;;;;4198120;28;20056;-43
2021/03/07 03:33:51;;;;;;;0.00;0.00;;;15.60;62.40;;;;;;4198000;28;20055;-45
2021/03/07 03:36:12;;;;;;;0.00;0.00;;;15.60;62.40;;;;;;4201418;28;20440;-44
2021/03/07 03:38:39;;;;;;;0.05;0.05;;;15.70;62.10;;;;;;4214702;28;20056;-48
2021/03/07 03:41:00;;;;;;;0.30;0.30;;;15.80;61.80;;;;;;4214344;28;20063;-44
2021/03/07 03:43:22;;;;;;;0.00;0.00;;;15.90;61.60;;;;;;4214708;28;20056;-46
2021/03/07 03:45:45;;;;;;;0.00;0.00;;;15.80;61.50;;;;;;4214661;28;20570;-44
2021/03/07 03:48:12;;;;;;;0.00;0.00;;;15.90;61.60;;;;;;4214640;28;20509;-44
2021/03/07 03:50:38;;;;;;;1.20;1.10;;;15.80;61.60;;;;;;4214338;28;20052;-48
2021/03/07 03:53:01;;;;;;;0.38;0.38;;;15.80;61.70;;;;;;4214529;28;20043;-48
2021/03/07 03:55:24;;;;;;;0.00;0.00;;;15.70;61.80;;;;;;4214354;28;20124;-45
2021/03/07 03:57:48;;;;;;;0.00;0.00;;;15.70;61.90;;;;;;4214175;28;20155;-45
2021/03/07 04:00:13;;;;;;;0.00;0.00;;;15.90;61.50;;;;;;4214266;28;20063;-47
2021/03/07 04:02:36;;;;;;;0.00;0.00;;;16.20;60.60;;;;;;4214428;28;20437;-46
2021/03/07 04:05:01;;;;;;;3.33;0.88;;;16.40;59.70;;;;;;4214305;28;20430;-45
2021/03/07 04:07:24;;;;;;;0.00;0.00;;;16.50;59.30;;;;;;4214356;28;20060;-42
2021/03/07 04:09:48;;;;;;;0.55;0.25;;;16.60;59.10;;;;;;4213783;28;20140;-43
2021/03/07 04:12:10;;;;;;;0.20;0.20;;;16.50;59.10;;;;;;4214079;28;20194;-43
2021/03/07 04:14:31;;;;;;;0.17;0.17;;;16.50;59.30;;;;;;4214138;28;20894;-43
2021/03/07 04:16:52;;;;;;;0.10;0.10;;;16.40;59.50;;;;;;4214070;28;20052;-43
2021/03/07 04:19:14;;;;;;;0.00;0.00;;;16.30;59.70;;;;;;4197254;28;20060;-43
2021/03/07 04:21:38;;;;;;;0.20;0.20;;;16.40;59.60;;;;;;4196833;28;20064;-44
2021/03/07 04:23:59;;;;;;;0.00;0.00;;;16.30;59.70;;;;;;4197802;28;20053;-44
2021/03/07 04:26:21;;;;;;;0.00;0.00;;;16.40;59.60;;;;;;4213425;28;20048;-46
2021/03/07 04:28:46;;;;;;;0.40;0.40;;;16.40;59.40;;;;;;4213566;28;20063;-43
2021/03/07 04:31:07;;;;;;;;;;;16.50;59.40;;;;;;4214359;28;20572;-44
2021/03/07 04:33:28;;;;;;;0.00;0.00;;;16.50;59.40;;;;;;4213948;28;19923;-43
2021/03/07 04:35:49;;;;;;;0.00;0.00;;;16.40;59.40;;;;;;4213454;28;20518;-44
2021/03/07 04:38:11;;;;;;;;;;;16.50;59.30;;;;;;4214284;28;20058;-44
2021/03/07 04:40:33;;;;;;;0.00;0.00;;;16.60;59.00;;;;;;4213623;28;20324;-45
2021/03/07 04:42:54;;;;;;;0.00;0.00;;;16.70;58.70;;;;;;4213726;28;20105;-45
2021/03/07 04:45:15;;;;;;;0.08;0.08;;;16.70;58.70;;;;;;4213443;28;20087;-44
2021/03/07 04:47:38;;;;;;;0.00;0.00;;;16.60;58.70;;;;;;4213533;28;20494;-41
2021/03/07 04:50:01;;;;;;;0.00;0.00;;;16.60;58.80;;;;;;4213599;28;20502;-45
2021/03/07 04:52:22;;;;;;;;;;;16.70;58.60;;;;;;4213888;28;20569;-46
2021/03/07 04:54:44;;;;;;;0.00;0.00;;;16.70;58.50;;;;;;4212261;28;19927;-44
2021/03/07 04:57:06;;;;;;;0.00;0.00;;;16.70;58.50;;;;;;4213043;28;20125;-47
2021/03/07 04:59:29;;;;;;;0.00;0.00;;;16.70;58.40;;;;;;4213146;28;20670;-47
2021/03/07 05:01:50;;;;;;;0.00;0.00;;;16.70;58.40;;;;;;4213202;28;20056;-44
2021/03/07 05:04:11;;;;;;;0.00;0.00;;;16.70;58.50;;;;;;4213183;28;20071;-45
2021/03/07 05:06:38;;;;;;;0.00;0.00;;;16.60;58.70;;;;;;4213373;28;20147;-49
2021/03/07 05:08:59;;;;;;;0.00;0.00;;;16.50;58.90;;;;;;4213155;28;20410;-43
2021/03/07 05:11:22;;;;;;;0.00;0.00;;;16.40;59.10;;;;;;4213398;28;20089;-44
2021/03/07 05:13:42;;;;;;;0.00;0.00;;;16.30;59.50;;;;;;4215523;28;20056;-44
2021/03/07 05:16:04;;;;;;;0.10;0.10;;;16.30;59.60;;;;;;4169453;27;20057;-43
2021/03/07 05:18:28;;;;;;;0.00;0.00;;;16.40;59.40;;;;;;4179987;28;20087;-44
2021/03/07 05:20:52;;;;;;;0.10;0.10;;;16.50;59.10;;;;;;4179845;28;20512;-43
2021/03/07 05:23:12;;;;;;;0.10;0.10;;;16.50;58.80;;;;;;4180153;28;20057;-44
2021/03/07 05:25:33;;;;;;;0.00;0.00;;;16.50;58.80;;;;;;4195321;28;20056;-43
2021/03/07 05:27:55;;;;;;;0.17;0.17;;;16.40;58.90;;;;;;4196293;28;20048;-46
2021/03/07 05:30:17;;;;;;;0.00;0.00;;;16.40;59.00;;;;;;4196277;28;20075;-45
2021/03/07 05:32:38;;;;;;;0.00;0.00;;;16.40;59.00;;;;;;4195531;28;20055;-43
2021/03/07 05:34:59;;;;;;;0.00;0.00;;;16.30;59.20;;;;;;4195614;28;20102;-44
2021/03/07 05:37:19;;;;;;;0.00;0.00;;;16.30;60.10;;;;;;4195881;28;20499;-44
2021/03/07 05:39:40;;;;;;;0.00;0.00;;;16.40;59.10;;;;;;4195692;28;20070;-44
2021/03/07 05:42:03;;;;;;;0.00;0.00;;;16.30;58.90;;;;;;4196220;28;20068;-46
2021/03/07 05:44:25;;;;;;;0.73;0.65;;;16.30;58.90;;;;;;4195636;28;20059;-43
2021/03/07 05:46:46;;;;;;;0.30;0.30;;;16.30;59.00;;;;;;4195756;28;20097;-44
2021/03/07 05:49:08;;;;;;;0.10;0.10;;;16.30;59.80;;;;;;4196069;28;20137;-43
2021/03/07 05:51:29;;;;;;;0.00;0.00;;;16.30;59.00;;;;;;4195076;28;20140;-44
2021/03/07 05:53:50;;;;;;;0.00;0.00;;;16.30;58.90;;;;;;4195846;28;20582;-43
2021/03/07 05:56:12;;;;;;;0.00;0.00;;;16.30;58.90;;;;;;4195534;28;20057;-43
2021/03/07 05:58:33;;;;;;;0.00;0.00;;;16.20;59.00;;;;;;4195625;28;20425;-43
2021/03/07 06:00:55;;;;;;;0.08;0.08;;;16.20;59.20;;;;;;4196065;28;20560;-45
2021/03/07 06:03:19;;;;;;;0.00;0.00;;;16.10;59.40;;;;;;4195365;28;20532;-44
2021/03/07 06:05:43;;;;;;;0.00;0.00;;;16.00;59.70;;;;;;4179284;28;20075;-44
2021/03/07 06:08:04;;;;;;;0.00;0.00;;;15.90;60.70;;;;;;4179234;28;20132;-44
2021/03/07 06:10:26;;;;;;;0.00;0.00;;;15.90;60.00;;;;;;4194884;28;20052;-44
2021/03/07 06:12:57;;;;;;;0.00;0.00;;;15.90;60.00;;;;;;4195807;28;20151;-48
2021/03/07 06:15:27;;;;;;;0.00;0.00;;;15.90;60.10;;;;;;4188684;28;20430;-43
2021/03/07 06:17:49;;;;;;;0.00;0.00;;;15.80;60.10;;;;;;4195002;28;20503;-44
2021/03/07 06:20:12;;;;;;;0.08;0.08;;;15.90;60.20;;;;;;4195521;28;20080;-43
2021/03/07 06:22:36;;;;;;;0.00;0.00;;;15.90;59.90;;;;;;4195795;28;20415;-43
2021/03/07 06:24:58;;;;;;;0.00;0.00;;;16.10;59.60;;;;;;4195423;28;20556;-44
2021/03/07 06:27:19;;;;;;;0.00;0.00;;;16.20;59.20;;;;;;4195275;28;20059;-44
2021/03/07 06:29:57;;;;;;;0.00;0.00;;;16.50;58.80;;;;;;4190043;28;20059;-44
2021/03/07 06:32:18;;;;;;;0.00;0.00;;;16.70;58.40;;;;;;4195678;28;20774;-44
2021/03/07 06:34:44;;;;;;;0.00;0.00;;;16.90;57.90;;;;;;4195312;28;20140;-46
2021/03/07 06:37:05;;;;;;;0.00;0.00;;;16.80;58.40;;;;;;4194833;28;20745;-44
2021/03/07 06:39:28;;;;;;;0.00;0.00;;;16.80;57.80;;;;;;4195352;28;20055;-44
2021/03/07 06:42:01;;;;;;;0.00;0.00;;;16.60;58.10;;;;;;4195168;28;20472;-45
2021/03/07 06:44:22;;;;;;;0.00;0.00;;;16.50;58.30;;;;;;4197496;28;20055;-44
2021/03/07 06:46:47;;;;;;;0.00;0.00;;;16.50;58.40;;;;;;4198778;28;20052;-50
2021/03/07 06:49:20;;;;;;;0.00;0.00;;;16.60;58.30;;;;;;4198585;28;20131;-48
2021/03/07 06:51:42;;;;;;;0.00;0.00;;;16.60;58.30;;;;;;4194593;28;20076;-44
2021/03/07 06:54:15;;;;;;;0.00;0.00;;;16.60;58.30;;;;;;4184815;28;20111;-44
2021/03/07 06:56:40;;;;;;;0.00;0.00;;;16.50;58.40;;;;;;4198722;28;20549;-45
2021/03/07 06:59:09;;;;;;;0.00;0.00;;;16.50;58.50;;;;;;4198629;28;20461;-44
2021/03/07 07:01:39;;;;;;;0.00;0.00;;;16.60;58.40;;;;;;4198470;28;20137;-46
2021/03/07 07:04:00;;;;;;;0.00;0.00;;;16.70;58.10;;;;;;4198749;28;20495;-44
2021/03/07 07:06:21;;;;;;;0.00;0.00;;;16.70;58.00;;;;;;4198471;28;20099;-44
2021/03/07 07:08:45;;;;;;;0.00;0.00;;;16.60;58.10;;;;;;4198324;28;20048;-43
2021/03/07 07:11:06;;;;;;;0.00;0.00;;;16.50;58.30;;;;;;4198452;28;20134;-43
2021/03/07 07:13:29;;;;;;;0.00;0.00;;;16.50;58.60;;;;;;4198374;28;20044;-43
2021/03/07 07:15:59;;;;;;;0.00;0.00;;;16.30;58.70;;;;;;4185040;28;20045;-43
2021/03/07 07:18:20;;;;;;;1.10;0.52;;;16.30;58.70;;;;;;4198064;28;20052;-44
2021/03/07 07:20:41;;;;;;;1.08;0.95;;;16.40;58.90;;;;;;4198236;28;20127;-48
2021/03/07 07:23:02;;;;;;;0.13;0.13;;;16.30;59.00;;;;;;4198163;28;20053;-45
2021/03/07 07:25:24;;;;;;;0.70;0.70;;;16.30;59.80;;;;;;4198221;28;20055;-43
2021/03/07 07:27:45;;;;;;;0.28;0.28;;;16.20;59.20;;;;;;4198202;28;20301;-43
2021/03/07 07:30:07;;;;;;;0.25;0.25;;;16.30;59.40;;;;;;4198209;28;20056;-44
2021/03/07 07:32:34;;;;;;;0.05;0.05;;;16.30;59.20;;;;;;4197663;28;20059;-44
2021/03/07 07:34:58;;;;;;;0.08;0.08;;;16.20;59.20;;;;;;4197603;28;20374;-44
2021/03/07 07:37:24;;;;;;;0.00;0.00;;;16.20;59.20;;;;;;4197852;28;20417;-44
2021/03/07 07:39:49;;;;;;;0.60;0.60;;;16.10;59.00;;;;;;4197973;28;20102;-44
2021/03/07 07:42:23;;;;;;;0.50;0.50;;;16.10;58.80;;;;;;4181443;28;20049;-44
2021/03/07 07:44:48;;;;;;;0.50;0.50;;;16.00;58.80;;;;;;4180351;28;20059;-44
2021/03/07 07:47:09;;;;;;;0.22;0.10;;;15.90;58.90;;;;;;4181281;28;20135;-44
2021/03/07 07:49:42;;;;;;;0.75;0.75;;;15.90;58.80;;;;;;4181362;28;20351;-48
2021/03/07 07:52:48;;;;;;;1.98;0.17;;;16.00;58.50;;;;;;4181409;28;20880;-52
2021/03/07 07:55:15;;;;;;;0.10;0.10;;;16.10;58.00;;;;;;4180488;28;20057;-46
2021/03/07 07:57:48;;;;;;;0.00;0.00;;;16.30;57.40;;;;;;4181049;28;20065;-44
2021/03/07 08:00:11;;;;;;;0.10;0.10;;;16.40;56.90;;;;;;4181081;28;20053;-49
2021/03/07 08:02:48;;;;;;;0.00;0.00;;;16.50;56.70;;;;;;4192226;28;20058;-47
2021/03/07 08:05:43;;;;;;;0.25;0.25;;;16.40;56.60;;;;;;4196415;28;20040;-48
2021/03/07 08:08:06;;;;;;;1.10;1.10;;;16.40;56.60;;;;;;4196378;28;20479;-47
2021/03/07 08:10:43;;;;;;;0.95;0.95;;;16.50;56.40;;;;;;4196781;28;20059;-46
2021/03/07 08:13:06;;;;;;;0.10;0.10;;;16.70;56.00;;;;;;4196975;28;20479;-43
2021/03/07 08:15:47;;;;;;;0.08;0.08;;;16.70;55.70;;;;;;4195701;28;20544;-43
2021/03/07 08:18:09;;;;;;;0.57;0.57;;;16.70;55.60;;;;;;4196985;28;20056;-43
2021/03/07 08:20:58;;;;;;;0.10;0.10;;;16.60;55.60;;;;;;4182321;28;20053;-44
2021/03/07 08:23:21;;;;;;;0.63;0.63;;;16.50;55.70;;;;;;4196937;28;20059;-43
2021/03/07 08:25:57;;;;;;;0.00;0.00;;;16.40;55.80;;;;;;4197160;28;20067;-45
2021/03/07 08:28:44;;;;;;;0.00;0.00;;;16.40;56.10;;;;;;4197021;28;20098;-42
2021/03/07 08:31:07;;;;;;;0.00;0.00;;;16.40;55.80;;;;;;4197038;28;20427;-47
2021/03/07 08:33:31;;;;;;;0.90;0.90;;;16.40;55.80;;;;;;4195579;28;20052;-46
2021/03/07 08:36:09;;;;;;;1.17;1.02;;;16.40;55.60;;;;;;4196564;28;20083;-43
2021/03/07 08:38:30;;;;;;;1.77;1.65;;;16.30;55.50;;;;;;4196725;28;20113;-45
2021/03/07 08:40:56;;;;;;;0.17;0.17;;;16.30;55.00;;;;;;4196943;28;20145;-43
2021/03/07 08:43:47;;;;;;;0.00;0.00;;;16.20;55.70;;;;;;4196691;28;20094;-43
2021/03/07 08:46:12;;;;;;;3.72;0.65;;;16.00;55.80;;;;;;4196842;28;20063;-43
2021/03/07 08:48:36;;;;;;;0.00;0.00;;;15.90;56.10;;;;;;4196544;28;20127;-46
2021/03/07 08:50:58;;;;;;;0.43;0.15;;;15.90;55.90;;;;;;4196700;28;20063;-43
2021/03/07 08:53:22;;;;;;;0.00;0.00;;;16.00;55.50;;;;;;4196465;28;20094;-43
2021/03/07 08:55:44;;;;;;;0.00;0.00;;;16.00;55.20;;;;;;4196646;28;20552;-46
2021/03/07 08:58:11;;;;;;;1.10;1.10;;;16.00;55.10;;;;;;4196178;28;20051;-43
2021/03/07 09:00:33;;;;;;;0.20;0.20;;;15.90;55.20;;;;;;4196532;28;20052;-43
2021/03/07 09:02:58;;;;;;;;;;;15.90;55.10;;;;;;4196651;28;20063;-44
2021/03/07 09:05:30;;;;;;;1.15;0.80;;;16.10;54.80;;;;;;4196640;28;20287;-43
2021/03/07 09:07:59;;;;;;;0.00;0.00;;;16.20;54.50;;;;;;4196177;28;20072;-43
2021/03/07 09:10:33;;;;;;;1.42;1.38;;;16.30;54.00;;;;;;4196431;28;20525;-42
2021/03/07 09:12:54;;;;;;;0.10;0.10;;;16.30;53.60;;;;;;4195847;28;20495;-43
2021/03/07 09:15:16;;;;;;;0.57;0.57;;;16.30;53.40;;;;;;4196359;28;20122;-42
2021/03/07 09:17:45;;;;;;;0.00;0.00;;;16.20;53.40;;;;;;4195663;28;20056;-42
2021/03/07 09:20:10;;;;;;;0.05;0.05;;;16.10;53.40;;;;;;4196127;28;20052;-42
2021/03/07 09:22:31;;;;;;;0.40;0.40;;;16.00;53.40;;;;;;4196188;28;20102;-43
2021/03/07 09:24:58;;;;;;;0.95;0.95;;;15.90;53.40;;;;;;4195956;28;20122;-43
2021/03/07 09:27:19;;;;;;;0.00;0.00;;;15.80;53.70;;;;;;4195947;28;20056;-44
2021/03/07 09:29:51;;;;;;;;;;;15.80;53.70;;;;;;4196536;28;20076;-43
2021/03/07 09:32:24;;;;;;;0.10;0.10;;;15.70;53.80;;;;;;4196106;28;19982;-42
2021/03/07 09:34:45;;;;;;;6.13;2.78;;;15.80;53.30;;;;;;4195682;28;20050;-42
2021/03/07 09:37:07;;;;;;;0.05;0.05;;;15.80;53.20;;;;;;4192876;28;20056;-43
2021/03/07 09:39:28;;;;;;;0.57;0.57;;;16.10;52.70;;;;;;4196030;28;20049;-43
2021/03/07 09:41:49;;;;;;;0.80;0.38;;;16.60;51.00;;;;;;4195923;28;20201;-45
2021/03/07 09:44:12;;;;;;;0.30;0.30;;;17.40;49.20;;;;;;4195629;28;20055;-43
2021/03/07 09:46:34;;;;;;;0.00;0.00;;;18.10;47.50;;;;;;4195626;28;20505;-42
2021/03/07 09:48:59;;;;;;;0.00;0.00;;;18.80;45.90;;;;;;4195689;28;20060;-42
2021/03/07 09:51:21;;;;;;;3.50;1.85;;;19.50;44.30;;;;;;4195881;28;20056;-43
2021/03/07 09:53:43;;;;;;;0.00;0.00;;;20.20;43.20;;;;;;4195477;28;20123;-43
2021/03/07 09:56:05;;;;;;;0.10;0.10;;;20.90;41.60;;;;;;4195730;28;20463;-44
2021/03/07 09:58:35;;;;;;;1.50;1.40;;;21.40;40.50;;;;;;4195707;28;20529;-43
2021/03/07 10:00:58;;;;;;;0.15;0.15;;;22.00;39.50;;;;;;4195697;28;20061;-43
2021/03/07 10:03:21;;;;;;;0.20;0.20;;;22.30;38.90;;;;;;4195507;28;20433;-43
2021/03/07 10:05:42;;;;;;;3.10;0.75;;;22.30;38.60;;;;;;4195424;28;20574;-44
2021/03/07 10:08:22;;;;;;;3.05;1.08;;;22.10;39.00;;;;;;4195481;28;20406;-44
2021/03/07 10:10:43;;;;;;;0.52;0.52;;;21.90;39.50;;;;;;4195451;28;20445;-44
2021/03/07 10:13:04;;;;;;;0.00;0.00;;;21.40;40.20;;;;;;4191688;28;20449;-47
2021/03/07 10:15:27;;;;;;;0.00;0.00;;;21.10;41.20;;;;;;4186268;28;20048;-49
2021/03/07 10:17:49;;;;;;;0.30;0.30;;;20.70;41.90;;;;;;4195298;28;20065;-51
2021/03/07 10:20:12;;;;;;;0.25;0.25;;;20.30;42.60;;;;;;4195584;28;20502;-46
2021/03/07 10:22:38;;;;;;;0.85;0.85;;;19.90;43.50;;;;;;4195535;28;20339;-44
2021/03/07 10:24:59;;;;;;;0.57;0.57;;;19.60;44.00;;;;;;4195521;28;20102;-44
2021/03/07 10:27:31;;;;;;;0.05;0.05;;;19.60;44.10;;;;;;4195411;28;20426;-44
2021/03/07 10:29:52;;;;;;;0.30;0.30;;;19.50;44.00;;;;;;4195267;28;20056;-44
2021/03/07 10:32:19;;;;;;;0.55;0.55;;;19.50;43.90;;;;;;4195355;28;20506;-45
2021/03/07 10:34:43;;;;;;;0.13;0.13;;;19.50;43.50;;;;;;4195341;28;20075;-45
2021/03/07 10:37:04;;;;;;;0.00;0.00;;;19.50;43.60;;;;;;4195457;28;20079;-44
2021/03/07 10:39:25;;;;;;;0.00;0.00;;;19.50;43.70;;;;;;4194977;28;20049;-47
2021/03/07 10:41:46;;;;;;;0.00;0.00;;;19.60;43.50;;;;;;4195379;28;20068;-44
2021/03/07 10:44:09;;;;;;;0.90;0.22;;;19.60;43.20;;;;;;4195295;28;20577;-44
2021/03/07 10:46:31;;;;;;;1.00;1.00;;;19.60;43.30;;;;;;4195384;28;20640;-44
2021/03/07 10:49:08;;;;;;;0.10;0.10;;;19.60;43.40;;;;;;4194766;28;20049;-44
2021/03/07 10:51:33;;;;;;;0.00;0.00;;;19.60;43.50;;;;;;4195169;28;20068;-44
2021/03/07 10:53:54;;;;;;;0.00;0.00;;;19.70;43.30;;;;;;4195280;28;20045;-44
2021/03/07 10:56:15;;;;;;;0.20;0.20;;;19.70;43.30;;;;;;4195054;28;20094;-44
2021/03/07 10:58:36;;;;;;;0.55;0.25;;;19.80;43.20;;;;;;4195110;28;20494;-47
2021/03/07 11:00:58;;;;;;;0.22;0.22;;;19.90;43.00;;;;;;4195069;28;20064;-44
2021/03/07 11:03:19;;;;;;;0.22;0.22;;;19.90;42.80;;;;;;4195078;28;20049;-45
2021/03/07 11:05:40;;;;;;;0.30;0.30;;;20.00;43.10;;;;;;4195376;28;20053;-48
2021/03/07 11:08:01;;;;;;;0.40;0.40;;;20.00;43.50;;;;;;4195330;28;20048;-45
2021/03/07 11:10:23;;;;;;;5.63;1.10;;;20.00;44.20;;;;;;4195164;28;20057;-52
2021/03/07 11:12:44;;;;;;;0.10;0.10;;;20.10;43.20;;;;;;4194664;28;20464;-46
2021/03/07 11:15:10;;;;;;;0.68;0.68;;;20.10;43.30;;;;;;4194785;28;20060;-48
2021/03/07 11:17:31;;;;;;;0.75;0.38;;;20.20;43.10;;;;;;4194674;28;20064;-44
2021/03/07 11:19:53;;;;;;;0.82;0.57;;;20.30;42.90;;;;;;4194994;28;20052;-47
2021/03/07 11:22:14;;;;;;;0.22;0.22;;;20.40;42.70;;;;;;4195264;28;20059;-50
2021/03/07 11:24:35;;;;;;;0.08;0.08;;;20.40;42.60;;;;;;4189561;28;20048;-48
2021/03/07 11:26:56;;;;;;;0.17;0.17;;;20.50;42.50;;;;;;4195184;28;20498;-45
2021/03/07 11:29:18;;;;;;;1.08;0.73;;;20.50;43.20;;;;;;4195072;28;20520;-47
2021/03/07 11:31:39;;;;;;;0.17;0.17;;;20.60;42.60;;;;;;4197185;28;20053;-45
2021/03/07 11:34:01;;;;;;;0.03;0.03;;;20.40;42.50;;;;;;4198004;28;20059;-46
2021/03/07 11:36:22;;;;;;;0.03;0.03;;;20.30;42.70;;;;;;4197552;28;20045;-47
2021/03/07 11:38:43;;;;;;;0.70;0.70;;;20.10;42.90;;;;;;4197741;28;20117;-44
2021/03/07 11:41:04;;;;;;;0.00;0.00;;;19.80;43.20;;;;;;4198026;28;20048;-46
2021/03/07 11:43:25;;;;;;;0.20;0.20;;;19.60;43.80;;;;;;4198163;28;20594;-46
2021/03/07 11:45:46;;;;;;;0.00;0.00;;;19.50;44.10;;;;;;4197882;28;20048;-44
2021/03/07 11:48:08;;;;;;;0.20;0.20;;;19.50;44.10;;;;;;4196182;28;20055;-44
2021/03/07 11:50:30;;;;;;;0.70;0.70;;;19.40;44.20;;;;;;4196851;28;20139;-44
2021/03/07 11:52:51;;;;;;;0.30;0.30;;;19.30;44.10;;;;;;4196037;28;20430;-47
2021/03/07 11:55:13;;;;;;;0.32;0.32;;;19.40;44.10;;;;;;4197533;28;20049;-46
2021/03/07 11:57:34;;;;;;;1.05;0.90;;;19.40;44.10;;;;;;4197543;28;20151;-47
2021/03/07 11:59:55;;;;;;;1.17;0.80;;;19.40;44.00;;;;;;4197744;28;20056;-48
2021/03/07 12:02:16;;;;;;;;;;;19.40;44.20;;;;;;4197576;28;20055;-47
2021/03/07 12:04:40;;;;;;;0.15;0.15;;;19.60;44.30;;;;;;4197521;28;19921;-44
2021/03/07 12:07:02;;;;;;;0.00;0.00;;;19.70;44.20;;;;;;4196317;28;20102;-47
2021/03/07 12:09:23;;;;;;;0.10;0.10;;;19.80;44.20;;;;;;4197192;28;20049;-47
2021/03/07 12:11:44;;;;;;;;;;;19.90;44.20;;;;;;4198016;28;20053;-45
2021/03/07 12:14:05;;;;;;;16.57;2.37;;;20.00;44.30;;;;;;4180971;28;19925;-44
2021/03/07 12:16:26;;;;;;;0.00;0.00;;;20.00;44.40;;;;;;4183043;28;20071;-45
2021/03/07 12:18:47;;;;;;;0.10;0.10;;;20.10;44.50;;;;;;4197406;28;20400;-46
2021/03/07 12:21:09;;;;;;;0.75;0.75;;;20.10;44.60;;;;;;4197435;28;20135;-46
2021/03/07 12:23:31;;;;;;;0.10;0.10;;;20.10;44.70;;;;;;4196041;28;20119;-45
2021/03/07 12:25:52;;;;;;;0.57;0.57;;;20.10;44.90;;;;;;4197213;28;20056;-44
2021/03/07 12:28:13;;;;;;;0.00;0.00;;;20.10;44.90;;;;;;4197168;28;20099;-45